Time;durP1;ratioP1;P1;durP2;ratioP2;P2;SDS_P1;SDS_P2;PMS_P1;PMS_P2;Temp;Humidity;BMP_temperature;BMP_pressure;BME280_temperature;BME280_humidity;BME280_pressure;Samples;Min_cycle;Max_cycle;Signal;HPM_P1;HPM_P2
2023/09/24 00:01:43;;;;;;;0.75;0.75;;;;;;;18.88;60.16;102240.88;4992187;28;20113;-56
2023/09/24 00:04:10;;;;;;;1.02;0.80;;;;;;;18.89;59.85;102247.16;4989387;28;20027;-57
2023/09/24 00:06:35;;;;;;;1.13;0.75;;;;;;;18.88;59.85;102245.44;4988943;28;20062;-57
2023/09/24 00:09:01;;;;;;;1.90;1.08;;;;;;;18.88;59.99;102253.53;4984261;28;20487;-56
2023/09/24 00:11:26;;;;;;;0.75;0.73;;;;;;;18.88;60.12;102250.84;4988329;28;20527;-57
2023/09/24 00:13:51;;;;;;;2.03;0.98;;;;;;;18.87;59.97;102246.44;4986654;28;20381;-57
2023/09/24 00:16:17;;;;;;;1.30;1.00;;;;;;;18.87;59.72;102257.22;4988850;28;20025;-57
2023/09/24 00:18:42;;;;;;;0.88;0.77;;;;;;;18.86;59.91;102255.50;4990223;28;20113;-56
2023/09/24 00:21:07;;;;;;;2.00;0.90;;;;;;;18.86;59.75;102260.88;4989137;28;20427;-57
2023/09/24 00:23:33;;;;;;;1.15;0.90;;;;;;;18.85;59.81;102264.53;4990088;28;20109;-56
2023/09/24 00:25:58;;;;;;;1.00;0.88;;;;;;;18.86;59.70;102255.50;4985058;28;20030;-57
2023/09/24 00:28:24;;;;;;;0.95;0.90;;;;;;;18.84;59.86;102262.84;4991557;28;20042;-57
2023/09/24 00:30:52;;;;;;;1.17;1.00;;;;;;;18.84;59.63;102261.00;4987936;28;20491;-57
2023/09/24 00:33:18;;;;;;;0.70;0.70;;;;;;;18.83;59.71;102258.41;4983666;28;20031;-57
2023/09/24 00:35:44;;;;;;;1.10;0.93;;;;;;;18.82;59.38;102265.66;4986828;28;20034;-57
2023/09/24 00:38:09;;;;;;;1.33;0.90;;;;;;;18.82;59.61;102273.75;4980846;28;20034;-56
2023/09/24 00:40:35;;;;;;;1.38;1.10;;;;;;;18.83;59.52;102271.91;4992669;28;20046;-57
2023/09/24 00:43:00;;;;;;;0.90;0.90;;;;;;;18.82;59.68;102267.50;4987782;28;20030;-57
2023/09/24 00:45:25;;;;;;;0.75;0.75;;;;;;;18.83;59.71;102271.91;4988728;28;20026;-56
2023/09/24 00:47:53;;;;;;;1.00;0.90;;;;;;;18.81;59.36;102272.03;4969025;28;20544;-57
2023/09/24 00:50:20;;;;;;;1.20;1.10;;;;;;;18.80;59.58;102275.72;4987826;28;20458;-57
2023/09/24 00:52:46;;;;;;;0.90;0.90;;;;;;;18.80;59.47;102286.50;4987421;28;20035;-57
2023/09/24 00:55:14;;;;;;;0.98;0.85;;;;;;;18.79;59.38;102282.06;4989451;28;20416;-57
2023/09/24 00:57:41;;;;;;;1.30;1.10;;;;;;;18.80;59.26;102285.63;4990015;28;20041;-57
2023/09/24 01:00:11;;;;;;;1.15;0.93;;;;;;;18.79;59.41;102289.28;4990379;28;20074;-57
2023/09/24 01:02:38;;;;;;;1.75;1.20;;;;;;;18.79;59.40;102283.88;4992467;28;20038;-57
2023/09/24 01:05:04;;;;;;;0.80;0.80;;;;;;;18.78;59.20;102282.19;4989682;28;20034;-57
2023/09/24 01:07:31;;;;;;;0.93;0.77;;;;;;;18.78;59.40;102277.63;4987326;28;20038;-57
2023/09/24 01:09:57;;;;;;;1.15;0.90;;;;;;;18.78;59.15;102271.38;4987182;28;20438;-57
2023/09/24 01:12:25;;;;;;;1.02;0.73;;;;;;;18.76;59.49;102279.59;4984965;28;20117;-57
2023/09/24 01:14:53;;;;;;;1.00;1.00;;;;;;;18.77;59.40;102278.59;4987246;28;20042;-57
2023/09/24 01:17:20;;;;;;;0.95;0.85;;;;;;;18.76;59.15;102280.44;4986641;28;20034;-56
2023/09/24 01:19:46;;;;;;;0.80;0.80;;;;;;;18.76;59.36;102284.97;4981567;28;20473;-57
2023/09/24 01:22:11;;;;;;;0.98;0.80;;;;;;;18.75;59.04;102276.03;4992563;28;20108;-57
2023/09/24 01:24:37;;;;;;;1.80;1.17;;;;;;;18.75;59.11;102276.03;4985564;28;20045;-57
2023/09/24 01:27:02;;;;;;;0.82;0.80;;;;;;;18.74;58.85;102277.00;4993651;28;20112;-57
2023/09/24 01:29:27;;;;;;;0.77;0.77;;;;;;;18.74;59.13;102274.31;4987219;28;20035;-56
2023/09/24 01:31:53;;;;;;;1.10;0.90;;;;;;;18.74;59.10;102278.84;4984989;28;20038;-57
2023/09/24 01:34:19;;;;;;;0.95;0.77;;;;;;;18.73;59.23;102278.00;4991789;28;20422;-57
2023/09/24 01:36:45;;;;;;;1.15;1.00;;;;;;;18.73;59.00;102277.09;4980733;28;20031;-57
2023/09/24 01:39:15;;;;;;;1.17;0.93;;;;;;;18.72;58.74;102278.97;4989022;28;20049;-57
2023/09/24 01:41:41;;;;;;;1.38;1.13;;;;;;;18.72;58.86;102278.09;4987866;28;20503;-57
2023/09/24 01:44:06;;;;;;;1.00;1.00;;;;;;;18.72;58.65;102278.97;4982379;28;20031;-57
2023/09/24 01:46:32;;;;;;;1.45;1.10;;;;;;;18.71;58.82;102274.53;4988695;28;20049;-57
2023/09/24 01:48:59;;;;;;;1.10;1.00;;;;;;;18.71;59.05;102273.66;4990921;28;20118;-57
2023/09/24 01:51:24;;;;;;;1.58;1.20;;;;;;;18.72;58.86;102278.09;4988828;28;20452;-57
2023/09/24 01:53:49;;;;;;;0.98;0.88;;;;;;;18.70;58.81;102277.38;4986580;28;20118;-56
2023/09/24 01:56:17;;;;;;;1.45;0.80;;;;;;;18.70;58.70;102275.50;4984086;28;20110;-56
2023/09/24 01:58:43;;;;;;;1.42;0.90;;;;;;;18.69;58.85;102271.09;4984833;28;20022;-56
2023/09/24 02:01:09;;;;;;;1.65;1.00;;;;;;;18.69;58.96;102270.22;4989045;28;20053;-57
2023/09/24 02:03:35;;;;;;;0.88;0.70;;;;;;;18.69;58.85;102281.88;4986685;28;20045;-56
2023/09/24 02:06:00;;;;;;;1.25;1.10;;;;;;;18.68;58.79;102285.56;4986695;28;20038;-56
2023/09/24 02:08:25;;;;;;;1.20;1.10;;;;;;;18.68;58.77;102263.13;4986739;28;20065;-57
2023/09/24 02:10:51;;;;;;;1.25;0.80;;;;;;;18.68;58.42;102273.91;4985522;28;20416;-56
2023/09/24 02:13:17;;;;;;;1.88;1.00;;;;;;;18.67;58.54;102273.03;4989038;28;20034;-58
2023/09/24 02:15:46;;;;;;;1.80;1.00;;;;;;;18.67;58.62;102278.44;4988231;28;20042;-56
2023/09/24 02:18:11;;;;;;;1.38;0.98;;;;;;;18.67;58.50;102286.53;4981106;28;20232;-56
2023/09/24 02:20:37;;;;;;;1.00;0.90;;;;;;;18.66;58.64;102287.53;4993806;28;20121;-56
2023/09/24 02:23:06;;;;;;;0.90;0.90;;;;;;;18.65;58.64;102291.19;4980366;28;20389;-57
2023/09/24 02:25:35;;;;;;;1.55;1.10;;;;;;;18.64;58.55;102289.47;4984553;28;20096;-56
2023/09/24 02:28:00;;;;;;;0.98;0.88;;;;;;;18.65;58.52;102296.56;4985079;28;20157;-57
2023/09/24 02:30:28;;;;;;;3.17;1.00;;;;;;;18.64;58.47;102296.69;4987037;28;20090;-56
2023/09/24 02:32:54;;;;;;;1.00;0.90;;;;;;;18.64;58.33;102311.06;4987933;28;20034;-57
2023/09/24 02:35:20;;;;;;;1.30;0.98;;;;;;;18.63;58.36;102303.94;4987750;28;20121;-57
2023/09/24 02:37:50;;;;;;;0.85;0.85;;;;;;;18.63;58.38;102305.78;4985301;28;20085;-56
2023/09/24 02:40:38;;;;;;;1.25;1.02;;;;;;;18.64;58.39;102296.69;4987787;28;20038;-57
2023/09/24 02:43:03;;;;;;;1.13;1.02;;;;;;;18.63;58.11;102303.94;4980704;28;20107;-56
2023/09/24 02:45:29;;;;;;;0.93;0.90;;;;;;;18.61;58.54;102303.19;4985167;28;20118;-56
2023/09/24 02:47:55;;;;;;;1.65;1.10;;;;;;;18.61;58.16;102303.19;4986474;28;20507;-56
2023/09/24 02:50:23;;;;;;;1.20;1.08;;;;;;;18.59;58.24;102291.66;4985262;28;20041;-57
2023/09/24 02:52:51;;;;;;;1.15;1.00;;;;;;;18.61;58.19;102299.63;4986953;28;20030;-56
2023/09/24 02:55:17;;;;;;;1.00;0.80;;;;;;;18.59;58.14;102297.03;4985814;28;20465;-57
2023/09/24 02:57:44;;;;;;;1.45;1.17;;;;;;;18.59;58.25;102297.03;4980059;28;20113;-56
2023/09/24 03:00:27;;;;;;;0.90;0.90;;;;;;;18.59;58.43;102294.34;4991093;28;20030;-56
2023/09/24 03:02:59;;;;;;;1.52;1.00;;;;;;;18.58;58.04;102292.59;4982652;28;20042;-57
2023/09/24 03:05:28;;;;;;;1.65;1.00;;;;;;;18.59;58.06;102297.03;4985258;28;20050;-57
2023/09/24 03:07:55;;;;;;;0.93;0.93;;;;;;;18.58;57.99;102299.84;4985958;28;20146;-57
2023/09/24 03:10:21;;;;;;;1.40;0.93;;;;;;;18.57;58.22;102301.69;4985190;28;20042;-57
2023/09/24 03:12:47;;;;;;;1.75;1.17;;;;;;;18.58;58.12;102306.09;4987929;28;20062;-56
2023/09/24 03:15:14;;;;;;;1.38;1.00;;;;;;;18.57;58.08;102307.09;4986763;28;20032;-57
2023/09/24 03:17:40;;;;;;;1.42;1.10;;;;;;;18.58;58.15;102314.19;4986586;28;20045;-57
2023/09/24 03:20:19;;;;;;;0.95;0.85;;;;;;;18.57;58.08;102312.47;4986616;28;20034;-57
2023/09/24 03:22:52;;;;;;;1.27;1.17;;;;;;;18.56;57.90;102308.94;4982573;28;20041;-57
2023/09/24 03:25:22;;;;;;;1.05;0.95;;;;;;;18.56;58.00;102310.75;4987697;28;20026;-56
2023/09/24 03:27:50;;;;;;;1.55;1.00;;;;;;;18.55;58.11;102306.34;4979132;28;20027;-57
2023/09/24 03:30:20;;;;;;;1.08;1.00;;;;;;;18.55;57.92;102317.13;4989959;28;20034;-57
2023/09/24 03:32:50;;;;;;;1.67;1.23;;;;;;;18.53;57.77;102314.53;4988590;28;20043;-56
2023/09/24 03:35:19;;;;;;;2.25;1.30;;;;;;;18.54;57.74;102321.69;4986380;28;20092;-56
2023/09/24 03:37:44;;;;;;;1.00;1.00;;;;;;;18.54;57.66;102323.50;4991971;28;20054;-57
2023/09/24 03:40:12;;;;;;;1.08;1.00;;;;;;;18.54;57.92;102326.19;4988155;28;20073;-57
2023/09/24 03:42:38;;;;;;;1.58;0.90;;;;;;;18.52;58.12;102325.44;4989809;28;20057;-56
2023/09/24 03:45:08;;;;;;;0.82;0.80;;;;;;;18.53;57.98;102336.13;4987220;28;20026;-57
2023/09/24 03:47:34;;;;;;;1.25;0.93;;;;;;;18.52;57.91;102331.72;4989153;28;20050;-56
2023/09/24 03:49:59;;;;;;;1.38;1.10;;;;;;;18.52;57.64;102328.13;4986499;28;20393;-56
2023/09/24 03:52:26;;;;;;;1.83;1.00;;;;;;;18.51;57.63;102331.84;4987443;28;20056;-57
2023/09/24 03:54:52;;;;;;;1.50;1.05;;;;;;;18.50;57.75;102336.34;4988898;28;20025;-57
2023/09/24 03:57:17;;;;;;;1.20;1.10;;;;;;;18.51;57.91;102339.91;4990288;28;20052;-56
2023/09/24 03:59:43;;;;;;;0.98;0.90;;;;;;;18.49;57.66;102329.25;4990099;28;20057;-57
2023/09/24 04:02:08;;;;;;;1.40;1.17;;;;;;;18.50;57.55;102338.19;4986007;28;20035;-57
2023/09/24 04:04:36;;;;;;;1.55;0.90;;;;;;;18.50;57.62;102339.03;4991097;28;20042;-57
2023/09/24 04:07:02;;;;;;;1.17;1.02;;;;;;;18.49;57.30;102333.78;4988197;28;20045;-57
2023/09/24 04:09:32;;;;;;;1.80;1.10;;;;;;;18.48;57.64;102342.84;4982590;28;20047;-57
2023/09/24 04:12:01;;;;;;;1.23;1.08;;;;;;;18.48;57.43;102335.59;4993681;28;20468;-57
2023/09/24 04:14:26;;;;;;;1.75;0.90;;;;;;;18.48;57.81;102345.53;4984205;28;20027;-57
2023/09/24 04:16:52;;;;;;;1.88;1.27;;;;;;;18.48;57.28;102342.84;4993889;28;20093;-57
2023/09/24 04:19:18;;;;;;;0.90;0.90;;;;;;;18.48;57.40;102345.53;4987157;28;20034;-57
2023/09/24 04:21:45;;;;;;;1.00;0.82;;;;;;;18.48;57.36;102348.22;4986568;28;20038;-57
2023/09/24 04:24:12;;;;;;;1.95;1.25;;;;;;;18.47;57.26;102351.91;4992071;28;20076;-57
2023/09/24 04:26:37;;;;;;;1.58;1.10;;;;;;;18.46;57.39;102347.47;4986455;28;20041;-57
2023/09/24 04:29:03;;;;;;;1.27;1.05;;;;;;;18.46;57.39;102350.19;4988020;28;20120;-56
2023/09/24 04:31:28;;;;;;;1.08;0.98;;;;;;;18.46;57.28;102356.44;4988251;28;20454;-57
2023/09/24 04:33:54;;;;;;;1.20;1.10;;;;;;;18.46;57.09;102360.97;4986913;28;20038;-56
2023/09/24 04:36:19;;;;;;;1.38;1.00;;;;;;;18.45;57.42;102354.72;4982377;28;20027;-57
2023/09/24 04:38:46;;;;;;;1.60;1.10;;;;;;;18.44;57.12;102352.97;4989545;28;20043;-57
2023/09/24 04:41:12;;;;;;;1.05;0.95;;;;;;;18.45;57.20;102353.84;4989169;28;20031;-56
2023/09/24 04:43:37;;;;;;;1.35;1.00;;;;;;;18.44;57.14;102352.97;4992129;28;20076;-57
2023/09/24 04:46:06;;;;;;;1.35;1.02;;;;;;;18.44;57.19;102349.44;4988425;28;20057;-57
2023/09/24 04:48:33;;;;;;;1.58;0.90;;;;;;;18.43;57.07;102366.56;4984160;28;20473;-57
2023/09/24 04:50:59;;;;;;;1.30;0.80;;;;;;;18.42;57.42;102363.03;4988688;28;20488;-57
2023/09/24 04:53:24;;;;;;;1.40;1.10;;;;;;;18.43;57.40;102361.19;4987581;28;20022;-57
2023/09/24 04:55:49;;;;;;;1.08;0.80;;;;;;;18.42;57.20;102356.78;4986924;28;20424;-56
2023/09/24 04:58:15;;;;;;;0.98;0.93;;;;;;;18.43;57.06;102363.88;4990056;28;20510;-57
2023/09/24 05:00:41;;;;;;;2.10;1.23;;;;;;;18.42;57.01;102364.88;4985533;28;20449;-56
2023/09/24 05:03:07;;;;;;;0.82;0.82;;;;;;;18.42;57.10;102354.94;4992472;28;20034;-56
2023/09/24 05:05:32;;;;;;;0.88;0.73;;;;;;;18.41;56.96;102363.13;4988008;28;20086;-57
2023/09/24 05:07:58;;;;;;;1.20;1.10;;;;;;;18.41;57.39;102355.03;4983143;28;20046;-56
2023/09/24 05:10:23;;;;;;;1.33;1.10;;;;;;;18.39;56.88;102357.88;4994523;28;20134;-57
2023/09/24 05:12:48;;;;;;;1.00;0.90;;;;;;;18.40;56.91;102364.13;4982906;28;20658;-57
2023/09/24 05:15:14;;;;;;;1.20;1.10;;;;;;;18.40;56.88;102366.81;4984787;28;20534;-56
2023/09/24 05:17:39;;;;;;;1.77;1.08;;;;;;;18.41;57.16;102368.53;4989819;28;20429;-57
2023/09/24 05:20:07;;;;;;;2.15;1.13;;;;;;;18.38;57.13;102369.63;4985993;28;20039;-57
2023/09/24 05:22:33;;;;;;;1.63;0.98;;;;;;;18.40;56.76;102372.22;4990419;28;20065;-56
2023/09/24 05:24:58;;;;;;;2.17;0.90;;;;;;;18.39;57.09;102373.16;4990152;28;20069;-57
2023/09/24 05:27:26;;;;;;;0.90;0.90;;;;;;;18.40;56.64;102380.31;4988307;28;20032;-57
2023/09/24 05:29:51;;;;;;;1.60;1.20;;;;;;;18.37;56.84;102384.06;4988789;28;20575;-57
2023/09/24 05:32:17;;;;;;;1.25;1.08;;;;;;;18.38;57.17;102384.94;4986573;28;20077;-57
2023/09/24 05:34:42;;;;;;;1.42;1.20;;;;;;;18.36;56.79;102388.59;4984382;28;20031;-57
2023/09/24 05:37:08;;;;;;;1.23;0.98;;;;;;;18.38;56.78;102393.03;4987000;28;20097;-57
2023/09/24 05:39:35;;;;;;;1.45;1.15;;;;;;;18.36;56.87;102394.00;4986704;28;20060;-57
2023/09/24 05:42:01;;;;;;;1.10;1.00;;;;;;;18.35;56.94;102399.50;4986211;28;20563;-57
2023/09/24 05:44:32;;;;;;;1.10;1.00;;;;;;;18.35;56.71;102403.06;4988689;28;20397;-57
2023/09/24 05:46:57;;;;;;;1.67;0.82;;;;;;;18.34;56.95;102409.44;4984473;28;20034;-56
2023/09/24 05:49:22;;;;;;;0.88;0.77;;;;;;;18.35;56.78;102408.47;4991659;28;20038;-57
2023/09/24 05:51:48;;;;;;;1.08;1.00;;;;;;;18.34;56.43;102422.91;4985149;28;20030;-56
2023/09/24 05:54:13;;;;;;;1.42;0.80;;;;;;;18.34;56.87;102414.81;4982096;28;20023;-56
2023/09/24 05:56:38;;;;;;;1.05;0.90;;;;;;;18.34;56.69;102414.81;4992542;28;20035;-57
2023/09/24 05:59:04;;;;;;;1.15;1.05;;;;;;;18.33;56.62;102426.59;4979843;28;20077;-57
2023/09/24 06:01:29;;;;;;;1.70;1.00;;;;;;;18.33;56.96;102426.59;4990831;28;20034;-57
2023/09/24 06:03:54;;;;;;;0.98;0.90;;;;;;;18.33;56.80;102425.72;4986769;28;20036;-57
2023/09/24 06:06:20;;;;;;;1.65;1.10;;;;;;;18.32;56.84;102424.84;4983727;28;20074;-57
2023/09/24 06:08:45;;;;;;;1.20;0.95;;;;;;;18.32;56.52;102419.47;4991384;28;20165;-56
2023/09/24 06:11:11;;;;;;;0.82;0.82;;;;;;;18.31;56.64;102423.13;4982992;28;20145;-57
2023/09/24 06:13:36;;;;;;;1.23;1.08;;;;;;;18.31;56.49;102423.13;4985705;28;20037;-57
2023/09/24 06:16:02;;;;;;;1.00;1.00;;;;;;;18.30;56.46;102426.81;4989512;28;20033;-57
2023/09/24 06:18:28;;;;;;;2.00;1.00;;;;;;;18.31;56.62;102427.66;4982355;28;20468;-57
2023/09/24 06:20:54;;;;;;;2.38;0.70;;;;;;;18.31;56.65;102422.25;4990234;28;20153;-57
2023/09/24 06:23:19;;;;;;;0.88;0.88;;;;;;;18.30;56.57;102426.81;4985062;28;20393;-56
2023/09/24 06:25:45;;;;;;;1.27;1.00;;;;;;;18.32;56.31;102429.41;4986746;28;20043;-57
2023/09/24 06:28:10;;;;;;;1.40;0.80;;;;;;;18.30;56.37;102432.19;4989641;28;20045;-56
2023/09/24 06:30:39;;;;;;;0.90;0.90;;;;;;;18.30;56.46;102434.03;4986753;28;20037;-57
2023/09/24 06:33:05;;;;;;;1.08;0.90;;;;;;;18.29;56.54;102441.25;4986904;28;20030;-56
2023/09/24 06:35:40;;;;;;;1.75;1.10;;;;;;;18.31;56.46;102443.84;4987227;28;20057;-55
2023/09/24 06:38:06;;;;;;;1.75;0.85;;;;;;;18.29;56.44;102440.38;4983721;28;20034;-56
2023/09/24 06:40:31;;;;;;;1.20;0.90;;;;;;;18.30;56.26;102444.81;4990511;28;20030;-56
2023/09/24 06:42:57;;;;;;;1.10;0.93;;;;;;;18.29;56.24;102452.03;4985929;28;20036;-56
2023/09/24 06:45:22;;;;;;;1.30;0.95;;;;;;;18.28;56.29;102444.94;4983116;28;20058;-56
2023/09/24 06:47:48;;;;;;;0.90;0.90;;;;;;;18.29;56.15;102446.63;4989302;28;20033;-56
2023/09/24 06:50:13;;;;;;;1.10;0.80;;;;;;;18.28;56.24;102447.63;4987286;28;20037;-56
2023/09/24 06:52:39;;;;;;;0.98;0.98;;;;;;;18.29;56.38;102446.63;4980463;28;20030;-56
2023/09/24 06:55:09;;;;;;;1.10;1.00;;;;;;;18.28;56.33;102457.56;4990879;28;20038;-56
2023/09/24 06:57:36;;;;;;;1.10;0.85;;;;;;;18.29;56.22;102456.56;4978113;28;20042;-56
2023/09/24 07:00:04;;;;;;;1.17;1.00;;;;;;;18.28;56.38;102460.25;4983991;28;20117;-56
2023/09/24 07:02:29;;;;;;;0.90;0.90;;;;;;;18.27;56.45;102456.66;4985441;28;20122;-56
2023/09/24 07:04:55;;;;;;;1.70;1.17;;;;;;;18.27;56.46;102455.81;4985300;28;20470;-56
2023/09/24 07:07:20;;;;;;;1.10;0.77;;;;;;;18.27;56.03;102462.06;4985451;28;20110;-55
2023/09/24 07:09:47;;;;;;;1.00;0.90;;;;;;;18.26;56.21;102452.25;4987360;28;20039;-56
2023/09/24 07:12:13;;;;;;;2.47;0.95;;;;;;;18.27;56.23;102461.22;4988786;28;20069;-56
2023/09/24 07:14:38;;;;;;;1.55;1.00;;;;;;;18.26;56.23;102457.66;4988572;28;20485;-56
2023/09/24 07:17:03;;;;;;;1.45;1.00;;;;;;;18.27;56.29;102463.91;4987560;28;20068;-56
2023/09/24 07:19:29;;;;;;;2.05;0.80;;;;;;;18.26;56.17;102465.75;4985236;28;20484;-56
2023/09/24 07:21:54;;;;;;;1.67;1.10;;;;;;;18.26;56.02;102460.34;4985697;28;20477;-56
2023/09/24 07:24:20;;;;;;;1.23;1.00;;;;;;;18.26;56.33;102463.06;4980691;28;20056;-56
2023/09/24 07:26:45;;;;;;;0.80;0.80;;;;;;;18.26;56.22;102463.06;4987669;28;20483;-56
2023/09/24 07:29:10;;;;;;;1.15;0.82;;;;;;;18.26;56.36;102465.75;4985526;28;20034;-56
2023/09/24 07:31:36;;;;;;;2.00;0.95;;;;;;;18.26;56.22;102471.13;4985620;28;20030;-56
2023/09/24 07:34:01;;;;;;;1.25;0.80;;;;;;;18.27;56.14;102475.53;4988656;28;20030;-56
2023/09/24 07:36:28;;;;;;;1.02;0.90;;;;;;;18.26;56.69;102481.94;4980456;28;20461;-56
2023/09/24 07:38:54;;;;;;;0.90;0.75;;;;;;;18.27;56.22;102482.78;4990067;28;20026;-56
2023/09/24 07:41:22;;;;;;;1.95;0.95;;;;;;;18.27;56.00;102474.69;4979675;28;20042;-56
2023/09/24 07:43:47;;;;;;;1.00;0.85;;;;;;;18.27;56.12;102474.69;4980383;28;20026;-56
2023/09/24 07:46:15;;;;;;;1.02;0.90;;;;;;;18.27;56.26;102480.94;4988378;28;20033;-56
2023/09/24 07:48:47;;;;;;;0.77;0.77;;;;;;;18.28;56.07;102485.38;4989554;28;20122;-56
2023/09/24 07:51:13;;;;;;;2.40;0.90;;;;;;;18.28;56.20;102489.91;4984027;28;20447;-56
2023/09/24 07:53:39;;;;;;;1.20;1.00;;;;;;;18.29;55.81;102499.72;4981691;28;20023;-57
2023/09/24 07:56:09;;;;;;;1.35;0.90;;;;;;;18.28;56.15;102498.00;4983406;28;20034;-56
2023/09/24 07:58:36;;;;;;;1.00;0.90;;;;;;;18.28;56.06;102496.16;4986732;28;20043;-56
2023/09/24 08:01:03;;;;;;;1.23;1.02;;;;;;;18.28;56.08;102493.47;4989406;28;20081;-56
2023/09/24 08:03:29;;;;;;;0.85;0.82;;;;;;;18.28;56.25;102490.75;4980863;28;20373;-56
2023/09/24 08:05:54;;;;;;;1.08;0.85;;;;;;;18.28;56.26;102495.31;4991896;28;20392;-56
2023/09/24 08:08:20;;;;;;;2.00;0.88;;;;;;;18.27;56.36;102496.25;4984750;28;20046;-56
2023/09/24 08:10:45;;;;;;;0.93;0.70;;;;;;;18.28;56.09;102487.22;4985116;28;20085;-56
2023/09/24 08:13:10;;;;;;;1.02;0.90;;;;;;;18.28;56.22;102487.22;4981793;28;20034;-56
2023/09/24 08:15:36;;;;;;;1.80;0.85;;;;;;;18.28;56.40;102490.75;4988835;28;20370;-56
2023/09/24 08:18:08;;;;;;;2.90;1.10;;;;;;;18.29;56.13;102494.31;4987622;28;20069;-56
2023/09/24 08:20:34;;;;;;;3.03;0.93;;;;;;;18.28;56.46;102493.47;4981247;28;20811;-56
2023/09/24 08:22:59;;;;;;;1.25;1.15;;;;;;;18.28;56.12;102488.06;4992638;28;20054;-56
2023/09/24 08:25:25;;;;;;;0.90;0.75;;;;;;;18.29;56.34;102494.31;4991723;28;20038;-56
2023/09/24 08:27:51;;;;;;;1.17;1.00;;;;;;;18.29;56.37;102495.16;4983118;28;20104;-56
2023/09/24 08:30:17;;;;;;;0.80;0.80;;;;;;;18.29;56.35;102499.72;4990057;28;20031;-56
2023/09/24 08:32:42;;;;;;;1.42;0.70;;;;;;;18.29;56.42;102500.56;4986244;28;20046;-56
2023/09/24 08:35:08;;;;;;;1.27;1.05;;;;;;;18.29;56.58;102495.16;4992726;28;20023;-57
2023/09/24 08:37:33;;;;;;;1.40;0.90;;;;;;;18.29;56.60;102497.88;4982651;28;20042;-56
2023/09/24 08:39:58;;;;;;;1.02;0.80;;;;;;;18.29;56.70;102497.88;4993837;28;20026;-56
2023/09/24 08:42:25;;;;;;;1.15;0.90;;;;;;;18.30;56.31;102507.69;4984850;28;20042;-56
2023/09/24 08:45:10;;;;;;;1.67;1.00;;;;;;;18.31;56.43;102504.00;4986006;28;20037;-56
2023/09/24 08:47:36;;;;;;;2.40;1.15;;;;;;;18.32;56.67;102508.44;4989703;28;21442;-56
2023/09/24 08:50:03;;;;;;;1.58;1.08;;;;;;;18.31;56.61;102508.56;4989541;28;20027;-56
2023/09/24 08:52:31;;;;;;;1.70;0.82;;;;;;;18.30;56.53;102507.69;4989169;28;20472;-56
2023/09/24 08:54:57;;;;;;;0.93;0.85;;;;;;;18.31;56.62;102506.72;4986209;28;20026;-56
2023/09/24 08:57:22;;;;;;;1.33;0.90;;;;;;;18.30;56.59;102502.31;4988351;28;20981;-56
2023/09/24 08:59:48;;;;;;;0.95;0.82;;;;;;;18.31;56.72;102504.00;4987121;28;20034;-57
2023/09/24 09:02:13;;;;;;;0.85;0.80;;;;;;;18.32;56.78;102505.75;4979793;28;20114;-56
2023/09/24 09:04:49;;;;;;;2.22;1.15;;;;;;;18.32;56.90;102505.75;4990438;28;20425;-56
2023/09/24 09:07:15;;;;;;;0.93;0.80;;;;;;;18.31;56.74;102512.09;4983899;28;20469;-56
2023/09/24 09:09:41;;;;;;;1.33;0.82;;;;;;;18.32;56.87;102513.84;4990261;28;20066;-56
2023/09/24 09:12:17;;;;;;;0.90;0.90;;;;;;;18.33;56.99;102498.53;4988978;28;20045;-56
2023/09/24 09:14:43;;;;;;;0.80;0.80;;;;;;;18.31;56.53;102504.00;4986709;28;20034;-56
2023/09/24 09:17:08;;;;;;;0.70;0.70;;;;;;;18.31;56.95;102497.75;4992905;28;20036;-56
2023/09/24 09:19:52;;;;;;;1.20;0.98;;;;;;;18.34;57.09;102498.41;4985349;28;20057;-56
2023/09/24 09:22:23;;;;;;;1.08;0.90;;;;;;;18.32;57.08;102491.41;4985132;28;20420;-56
2023/09/24 09:25:06;;;;;;;1.27;1.00;;;;;;;18.35;57.04;102483.97;4986462;28;20457;-57
2023/09/24 09:27:33;;;;;;;2.47;0.73;;;;;;;18.33;56.82;102483.22;4979815;28;20038;-56
2023/09/24 09:30:15;;;;;;;1.60;1.00;;;;;;;18.32;57.07;102473.41;4985236;28;20361;-56
2023/09/24 09:32:44;;;;;;;2.35;0.90;;;;;;;18.33;56.64;102476.94;4984815;28;20389;-56
2023/09/24 09:35:10;;;;;;;0.75;0.63;;;;;;;18.33;57.03;102469.75;4990407;28;20057;-56
2023/09/24 09:37:38;;;;;;;1.27;0.70;;;;;;;18.32;56.84;102462.59;4987416;28;20034;-56
2023/09/24 09:40:06;;;;;;;2.58;0.90;;;;;;;18.33;56.77;102463.47;4981342;28;20069;-56
2023/09/24 09:42:35;;;;;;;1.42;0.90;;;;;;;18.33;56.84;102463.47;4992087;28;20451;-56
2023/09/24 09:45:09;;;;;;;0.75;0.75;;;;;;;18.34;57.15;102465.19;4988779;28;20069;-55
2023/09/24 09:47:59;;;;;;;0.95;0.85;;;;;;;18.35;56.40;102462.41;4979987;28;20437;-56
2023/09/24 09:50:25;;;;;;;1.58;0.80;;;;;;;18.34;57.11;102457.97;4982776;28;20073;-56
2023/09/24 09:52:54;;;;;;;5.18;0.85;;;;;;;18.35;57.11;102450.72;4984978;28;20050;-56
2023/09/24 09:55:21;;;;;;;1.23;0.88;;;;;;;18.34;56.57;102454.41;4983463;28;20499;-56
2023/09/24 09:57:47;;;;;;;1.95;0.80;;;;;;;18.35;56.94;102448.03;4985526;28;20045;-55
2023/09/24 10:00:14;;;;;;;0.73;0.73;;;;;;;18.35;57.26;102448.91;4987790;28;20105;-56
2023/09/24 10:02:42;;;;;;;1.20;0.65;;;;;;;18.35;57.01;102446.22;4988670;28;20121;-55
2023/09/24 10:05:11;;;;;;;0.85;0.68;;;;;;;18.36;57.16;102437.13;4988088;28;20093;-56
2023/09/24 10:07:40;;;;;;;1.35;0.80;;;;;;;18.37;57.11;102443.38;4980707;28;20031;-56
2023/09/24 10:10:40;;;;;;;1.42;0.80;;;;;;;18.41;57.22;102430.56;4992104;28;20117;-55
2023/09/24 10:13:06;;;;;;;1.65;0.80;;;;;;;18.38;57.10;102430.78;4986226;28;20104;-56
2023/09/24 10:15:31;;;;;;;1.33;1.05;;;;;;;18.36;57.35;102426.34;4989643;28;20477;-55
2023/09/24 10:18:09;;;;;;;1.45;0.75;;;;;;;18.39;57.34;102424.41;4985783;28;20477;-55
2023/09/24 10:20:50;;;;;;;1.95;0.63;;;;;;;18.39;57.30;102435.19;4984844;28;20062;-55
2023/09/24 10:23:30;;;;;;;2.40;0.82;;;;;;;18.40;57.27;102428.84;4987965;28;20571;-56
2023/09/24 10:25:59;;;;;;;0.90;0.70;;;;;;;18.38;57.30;102428.09;4994621;28;20037;-55
2023/09/24 10:28:47;;;;;;;3.70;0.80;;;;;;;18.39;57.32;102421.72;4982481;28;20372;-56
2023/09/24 10:31:13;;;;;;;1.17;0.77;;;;;;;18.39;57.16;102419.00;4988926;28;20054;-56
2023/09/24 10:33:57;;;;;;;1.30;0.80;;;;;;;18.42;57.25;102424.19;4982530;28;20071;-56
2023/09/24 10:36:31;;;;;;;1.10;0.90;;;;;;;18.39;57.44;102408.22;4985004;28;20026;-56
2023/09/24 10:39:04;;;;;;;3.20;0.85;;;;;;;18.39;57.10;102403.72;4985435;28;20084;-56
2023/09/24 10:41:31;;;;;;;0.65;0.60;;;;;;;18.40;57.23;102412.66;4985143;28;20491;-55
2023/09/24 10:44:25;;;;;;;1.05;0.60;;;;;;;18.41;57.30;102411.66;4983275;28;20100;-56
2023/09/24 10:46:50;;;;;;;1.05;0.63;;;;;;;18.39;57.35;102409.13;4982127;28;20035;-56
2023/09/24 10:49:24;;;;;;;1.60;0.98;;;;;;;18.40;57.43;102400.03;4988093;28;20060;-55
2023/09/24 10:51:59;;;;;;;1.30;1.00;;;;;;;18.41;57.58;102412.56;4980421;28;20110;-55
2023/09/24 10:54:25;;;;;;;1.25;0.90;;;;;;;18.40;57.31;102400.03;4988102;28;20041;-55
2023/09/24 10:56:50;;;;;;;2.35;1.05;;;;;;;18.40;57.62;102405.44;4986732;28;20030;-55
2023/09/24 10:59:16;;;;;;;1.88;0.80;;;;;;;18.41;57.59;102404.47;4981966;28;20030;-56
2023/09/24 11:01:42;;;;;;;1.20;0.85;;;;;;;18.41;57.53;102400.88;4990706;28;20034;-56
2023/09/24 11:04:11;;;;;;;0.85;0.80;;;;;;;18.41;57.63;102404.47;4983321;28;20023;-56
2023/09/24 11:06:36;;;;;;;1.83;0.80;;;;;;;18.42;57.54;102406.16;4984128;28;20053;-56
2023/09/24 11:09:15;;;;;;;2.97;0.88;;;;;;;18.43;57.44;102409.72;4984814;28;20058;-56
2023/09/24 11:11:42;;;;;;;1.35;0.80;;;;;;;18.42;57.42;102402.63;4985087;28;20041;-56
2023/09/24 11:14:23;;;;;;;1.02;0.60;;;;;;;18.45;57.56;102399.69;4985510;28;20150;-56
2023/09/24 11:16:53;;;;;;;1.23;0.70;;;;;;;18.44;57.56;102393.44;4982930;28;20030;-56
2023/09/24 11:19:41;;;;;;;1.17;0.73;;;;;;;18.46;57.49;102399.56;4984742;28;20035;-56
2023/09/24 11:22:23;;;;;;;1.10;0.70;;;;;;;18.46;57.57;102406.81;4984273;28;20473;-56
2023/09/24 11:25:11;;;;;;;1.70;0.80;;;;;;;18.46;57.71;102404.97;4983900;28;20951;-56
2023/09/24 11:27:51;;;;;;;1.92;0.70;;;;;;;18.47;57.52;102405.84;4979522;28;20034;-56